Portada
METAR-TAF:

METAR-TAF

Aeroports :

Harrisburg, Pennsilvània, Estats Units d'Amèrica

latitud: 40-13-02N, longitud: 076-51-05W, altitud: 106 m

Observació

L'informe es va fer fa 12 minuts, a les 11:56 UTC
Vent calma
Temperatura 18°C
Humitat 94%
Pressió 1024 hPa
Visibilitat: 0.4 km
boira

METAR: KCXY 221156Z 00000KT 1/4SM FG VV002 18/17 A3023 RMK AO2 SLP237 T01830167 10183 20172 53003 RVRNO

Hora: 08:08 (12:08 UTC)


TAF: manca

Observacions i pronòstics meteorològics de més de 4000 aeroports (METAR i TAF).

Les estacions disponibles són els punts grocs i vermells al mapa.

Posi el ratolí al punt desitjat per veure el nom de l'estació.

Feu clic per veure les observacions i els pronòstics meteorològics.

Per canviar el mapa: feu clic els botons verds amb una creu de color negre per apropar; al botó verd amb un guió per allunyar la imatge; o en les fletxes verdes per a mapes adjacents.


METAR-TAF: